sensor_id;sensor_type;location;lat;lon;timestamp;P1;durP1;ratioP1;P2;durP2;ratioP2
20080;SDS011;10200;49.232;9.222;2023-08-24T00:01:09;5.38;;;3.38;;
20080;SDS011;10200;49.232;9.222;2023-08-24T00:03:37;4.88;;;3.17;;
20080;SDS011;10200;49.232;9.222;2023-08-24T00:06:03;9.70;;;3.50;;
20080;SDS011;10200;49.232;9.222;2023-08-24T00:08:28;6.40;;;3.15;;
20080;SDS011;10200;49.232;9.222;2023-08-24T00:10:54;10.15;;;3.30;;
20080;SDS011;10200;49.232;9.222;2023-08-24T00:13:19;6.47;;;2.95;;
20080;SDS011;10200;49.232;9.222;2023-08-24T00:15:45;4.30;;;3.45;;
20080;SDS011;10200;49.232;9.222;2023-08-24T00:18:11;3.55;;;3.25;;
20080;SDS011;10200;49.232;9.222;2023-08-24T00:20:37;4.55;;;3.72;;
20080;SDS011;10200;49.232;9.222;2023-08-24T00:23:03;3.42;;;3.08;;
20080;SDS011;10200;49.232;9.222;2023-08-24T00:25:29;4.60;;;3.00;;
20080;SDS011;10200;49.232;9.222;2023-08-24T00:27:55;5.85;;;3.90;;
20080;SDS011;10200;49.232;9.222;2023-08-24T00:30:21;4.65;;;3.50;;
20080;SDS011;10200;49.232;9.222;2023-08-24T00:32:48;3.67;;;3.15;;
20080;SDS011;10200;49.232;9.222;2023-08-24T00:35:14;5.38;;;3.50;;
20080;SDS011;10200;49.232;9.222;2023-08-24T00:37:40;5.60;;;3.08;;
20080;SDS011;10200;49.232;9.222;2023-08-24T00:40:06;7.07;;;3.45;;
20080;SDS011;10200;49.232;9.222;2023-08-24T00:42:42;5.00;;;3.20;;
20080;SDS011;10200;49.232;9.222;2023-08-24T00:45:09;9.38;;;3.42;;
20080;SDS011;10200;49.232;9.222;2023-08-24T00:47:40;4.28;;;3.28;;
20080;SDS011;10200;49.232;9.222;2023-08-24T00:50:10;4.57;;;3.30;;
20080;SDS011;10200;49.232;9.222;2023-08-24T00:52:37;7.90;;;3.53;;
20080;SDS011;10200;49.232;9.222;2023-08-24T00:55:05;4.85;;;3.47;;
20080;SDS011;10200;49.232;9.222;2023-08-24T00:57:31;9.20;;;3.58;;
20080;SDS011;10200;49.232;9.222;2023-08-24T00:59:58;6.95;;;3.65;;
20080;SDS011;10200;49.232;9.222;2023-08-24T01:02:24;6.13;;;3.53;;
20080;SDS011;10200;49.232;9.222;2023-08-24T01:04:50;7.35;;;3.90;;
20080;SDS011;10200;49.232;9.222;2023-08-24T01:07:16;4.45;;;3.95;;
20080;SDS011;10200;49.232;9.222;2023-08-24T01:09:42;6.38;;;3.17;;
20080;SDS011;10200;49.232;9.222;2023-08-24T01:12:16;8.40;;;3.95;;
20080;SDS011;10200;49.232;9.222;2023-08-24T01:15:13;6.38;;;3.85;;
20080;SDS011;10200;49.232;9.222;2023-08-24T01:17:42;4.13;;;3.35;;
20080;SDS011;10200;49.232;9.222;2023-08-24T01:20:09;6.10;;;3.30;;
20080;SDS011;10200;49.232;9.222;2023-08-24T01:22:52;4.80;;;3.67;;
20080;SDS011;10200;49.232;9.222;2023-08-24T01:27:59;6.15;;;3.38;;
20080;SDS011;10200;49.232;9.222;2023-08-24T01:30:26;5.03;;;3.10;;
20080;SDS011;10200;49.232;9.222;2023-08-24T01:32:52;8.70;;;3.63;;
20080;SDS011;10200;49.232;9.222;2023-08-24T01:35:18;4.93;;;3.83;;
20080;SDS011;10200;49.232;9.222;2023-08-24T01:37:43;7.70;;;3.45;;
20080;SDS011;10200;49.232;9.222;2023-08-24T01:43:01;3.78;;;3.35;;
20080;SDS011;10200;49.232;9.222;2023-08-24T01:45:29;5.25;;;3.85;;
20080;SDS011;10200;49.232;9.222;2023-08-24T01:47:56;6.22;;;3.60;;
20080;SDS011;10200;49.232;9.222;2023-08-24T01:50:24;4.93;;;3.20;;
20080;SDS011;10200;49.232;9.222;2023-08-24T01:52:50;4.32;;;3.58;;
20080;SDS011;10200;49.232;9.222;2023-08-24T01:55:19;5.88;;;3.10;;
20080;SDS011;10200;49.232;9.222;2023-08-24T01:57:45;9.40;;;3.70;;
20080;SDS011;10200;49.232;9.222;2023-08-24T02:00:10;4.25;;;3.35;;
20080;SDS011;10200;49.232;9.222;2023-08-24T02:02:36;4.68;;;3.67;;
20080;SDS011;10200;49.232;9.222;2023-08-24T02:05:03;4.47;;;3.70;;
20080;SDS011;10200;49.232;9.222;2023-08-24T02:07:29;6.55;;;4.05;;
20080;SDS011;10200;49.232;9.222;2023-08-24T02:09:55;3.20;;;2.83;;
20080;SDS011;10200;49.232;9.222;2023-08-24T02:12:20;6.82;;;3.33;;
20080;SDS011;10200;49.232;9.222;2023-08-24T02:14:46;7.40;;;3.25;;
20080;SDS011;10200;49.232;9.222;2023-08-24T02:17:11;6.13;;;3.58;;
20080;SDS011;10200;49.232;9.222;2023-08-24T02:19:37;6.32;;;3.35;;
20080;SDS011;10200;49.232;9.222;2023-08-24T02:22:03;6.10;;;3.60;;
20080;SDS011;10200;49.232;9.222;2023-08-24T02:24:28;5.38;;;3.50;;
20080;SDS011;10200;49.232;9.222;2023-08-24T02:26:54;4.68;;;3.47;;
20080;SDS011;10200;49.232;9.222;2023-08-24T02:29:19;7.85;;;3.83;;
20080;SDS011;10200;49.232;9.222;2023-08-24T02:31:45;4.25;;;3.80;;
20080;SDS011;10200;49.232;9.222;2023-08-24T02:34:11;5.70;;;3.90;;
20080;SDS011;10200;49.232;9.222;2023-08-24T02:36:36;8.35;;;3.47;;
20080;SDS011;10200;49.232;9.222;2023-08-24T02:39:02;4.00;;;3.60;;
20080;SDS011;10200;49.232;9.222;2023-08-24T02:41:27;6.30;;;3.78;;
20080;SDS011;10200;49.232;9.222;2023-08-24T02:43:53;6.18;;;3.72;;
20080;SDS011;10200;49.232;9.222;2023-08-24T02:46:20;5.63;;;3.55;;
20080;SDS011;10200;49.232;9.222;2023-08-24T02:48:46;7.45;;;4.00;;
20080;SDS011;10200;49.232;9.222;2023-08-24T02:51:11;6.55;;;3.67;;
20080;SDS011;10200;49.232;9.222;2023-08-24T02:53:38;3.72;;;3.05;;
20080;SDS011;10200;49.232;9.222;2023-08-24T02:56:03;6.03;;;3.83;;
20080;SDS011;10200;49.232;9.222;2023-08-24T02:58:29;4.28;;;3.60;;
20080;SDS011;10200;49.232;9.222;2023-08-24T03:00:55;8.23;;;4.10;;
20080;SDS011;10200;49.232;9.222;2023-08-24T03:03:21;4.82;;;3.58;;
20080;SDS011;10200;49.232;9.222;2023-08-24T03:05:54;6.82;;;3.55;;
20080;SDS011;10200;49.232;9.222;2023-08-24T03:08:21;6.53;;;3.00;;
20080;SDS011;10200;49.232;9.222;2023-08-24T03:10:46;6.70;;;3.45;;
20080;SDS011;10200;49.232;9.222;2023-08-24T03:13:13;4.82;;;3.03;;
20080;SDS011;10200;49.232;9.222;2023-08-24T03:15:38;6.90;;;3.75;;
20080;SDS011;10200;49.232;9.222;2023-08-24T03:18:04;8.05;;;3.63;;
20080;SDS011;10200;49.232;9.222;2023-08-24T03:20:30;3.90;;;3.45;;
20080;SDS011;10200;49.232;9.222;2023-08-24T03:22:55;3.92;;;3.53;;
20080;SDS011;10200;49.232;9.222;2023-08-24T03:25:22;5.10;;;3.47;;
20080;SDS011;10200;49.232;9.222;2023-08-24T03:27:48;6.40;;;3.63;;
20080;SDS011;10200;49.232;9.222;2023-08-24T03:30:14;6.18;;;3.03;;
20080;SDS011;10200;49.232;9.222;2023-08-24T03:32:40;4.85;;;3.35;;
20080;SDS011;10200;49.232;9.222;2023-08-24T03:35:06;5.47;;;3.53;;
20080;SDS011;10200;49.232;9.222;2023-08-24T03:37:32;6.88;;;3.85;;
20080;SDS011;10200;49.232;9.222;2023-08-24T03:39:58;4.40;;;3.80;;
20080;SDS011;10200;49.232;9.222;2023-08-24T03:42:24;7.47;;;4.45;;
20080;SDS011;10200;49.232;9.222;2023-08-24T03:44:49;4.25;;;3.40;;
20080;SDS011;10200;49.232;9.222;2023-08-24T03:47:15;5.68;;;3.58;;
20080;SDS011;10200;49.232;9.222;2023-08-24T03:49:43;7.25;;;4.15;;
20080;SDS011;10200;49.232;9.222;2023-08-24T03:52:09;7.43;;;4.13;;
20080;SDS011;10200;49.232;9.222;2023-08-24T03:54:35;5.88;;;3.75;;
20080;SDS011;10200;49.232;9.222;2023-08-24T03:57:01;4.22;;;3.83;;
20080;SDS011;10200;49.232;9.222;2023-08-24T03:59:27;6.45;;;3.75;;
20080;SDS011;10200;49.232;9.222;2023-08-24T04:01:52;5.03;;;3.38;;
20080;SDS011;10200;49.232;9.222;2023-08-24T04:04:18;6.90;;;3.85;;
20080;SDS011;10200;49.232;9.222;2023-08-24T04:06:44;4.32;;;3.92;;
20080;SDS011;10200;49.232;9.222;2023-08-24T04:09:09;8.75;;;3.58;;
20080;SDS011;10200;49.232;9.222;2023-08-24T04:11:35;4.55;;;3.42;;
20080;SDS011;10200;49.232;9.222;2023-08-24T04:14:01;5.15;;;3.53;;
20080;SDS011;10200;49.232;9.222;2023-08-24T04:16:26;7.45;;;3.80;;
20080;SDS011;10200;49.232;9.222;2023-08-24T04:18:52;5.47;;;3.47;;
20080;SDS011;10200;49.232;9.222;2023-08-24T04:21:17;4.60;;;3.20;;
20080;SDS011;10200;49.232;9.222;2023-08-24T04:23:43;4.47;;;3.83;;
20080;SDS011;10200;49.232;9.222;2023-08-24T04:26:13;7.13;;;3.60;;
20080;SDS011;10200;49.232;9.222;2023-08-24T04:28:39;7.68;;;4.47;;
20080;SDS011;10200;49.232;9.222;2023-08-24T04:31:04;5.97;;;3.83;;
20080;SDS011;10200;49.232;9.222;2023-08-24T04:33:30;5.07;;;3.25;;
20080;SDS011;10200;49.232;9.222;2023-08-24T04:35:56;5.40;;;3.78;;
20080;SDS011;10200;49.232;9.222;2023-08-24T04:38:23;4.55;;;3.17;;
20080;SDS011;10200;49.232;9.222;2023-08-24T04:40:50;4.65;;;3.00;;
20080;SDS011;10200;49.232;9.222;2023-08-24T04:43:16;4.05;;;3.05;;
20080;SDS011;10200;49.232;9.222;2023-08-24T04:45:42;4.30;;;3.20;;
20080;SDS011;10200;49.232;9.222;2023-08-24T04:48:08;3.67;;;2.95;;
20080;SDS011;10200;49.232;9.222;2023-08-24T04:50:33;3.55;;;2.65;;
20080;SDS011;10200;49.232;9.222;2023-08-24T04:52:59;6.78;;;3.22;;
20080;SDS011;10200;49.232;9.222;2023-08-24T04:55:24;4.30;;;3.00;;
20080;SDS011;10200;49.232;9.222;2023-08-24T04:57:50;3.90;;;2.83;;
20080;SDS011;10200;49.232;9.222;2023-08-24T05:00:15;4.38;;;3.15;;
20080;SDS011;10200;49.232;9.222;2023-08-24T05:02:42;5.70;;;2.97;;
20080;SDS011;10200;49.232;9.222;2023-08-24T05:05:08;3.00;;;2.70;;
20080;SDS011;10200;49.232;9.222;2023-08-24T05:07:39;3.38;;;3.03;;
20080;SDS011;10200;49.232;9.222;2023-08-24T05:10:05;7.90;;;3.17;;
20080;SDS011;10200;49.232;9.222;2023-08-24T05:12:32;3.03;;;2.72;;
20080;SDS011;10200;49.232;9.222;2023-08-24T05:15:00;7.40;;;3.30;;
20080;SDS011;10200;49.232;9.222;2023-08-24T05:17:26;7.63;;;4.03;;
20080;SDS011;10200;49.232;9.222;2023-08-24T05:19:56;7.30;;;3.15;;
20080;SDS011;10200;49.232;9.222;2023-08-24T05:22:22;3.75;;;3.08;;
20080;SDS011;10200;49.232;9.222;2023-08-24T05:24:48;3.92;;;3.17;;
20080;SDS011;10200;49.232;9.222;2023-08-24T05:27:14;6.03;;;3.03;;
20080;SDS011;10200;49.232;9.222;2023-08-24T05:29:40;7.28;;;3.40;;
20080;SDS011;10200;49.232;9.222;2023-08-24T05:32:06;3.85;;;3.40;;
20080;SDS011;10200;49.232;9.222;2023-08-24T05:34:32;3.13;;;2.67;;
20080;SDS011;10200;49.232;9.222;2023-08-24T05:36:57;2.88;;;2.40;;
20080;SDS011;10200;49.232;9.222;2023-08-24T05:39:23;3.45;;;2.85;;
20080;SDS011;10200;49.232;9.222;2023-08-24T05:41:52;4.07;;;2.88;;
20080;SDS011;10200;49.232;9.222;2023-08-24T05:44:20;7.15;;;2.58;;
20080;SDS011;10200;49.232;9.222;2023-08-24T05:46:46;9.68;;;2.97;;
20080;SDS011;10200;49.232;9.222;2023-08-24T05:49:12;5.15;;;2.83;;
20080;SDS011;10200;49.232;9.222;2023-08-24T05:51:38;4.47;;;3.03;;
20080;SDS011;10200;49.232;9.222;2023-08-24T05:54:04;7.25;;;3.63;;
20080;SDS011;10200;49.232;9.222;2023-08-24T05:56:29;5.25;;;2.78;;
20080;SDS011;10200;49.232;9.222;2023-08-24T05:58:57;2.90;;;2.60;;
20080;SDS011;10200;49.232;9.222;2023-08-24T06:01:23;3.65;;;2.60;;
20080;SDS011;10200;49.232;9.222;2023-08-24T06:03:49;8.18;;;3.17;;
20080;SDS011;10200;49.232;9.222;2023-08-24T06:06:15;3.60;;;2.50;;
20080;SDS011;10200;49.232;9.222;2023-08-24T06:08:41;3.10;;;2.25;;
20080;SDS011;10200;49.232;9.222;2023-08-24T06:11:06;2.33;;;2.13;;
20080;SDS011;10200;49.232;9.222;2023-08-24T06:13:32;3.88;;;2.70;;
20080;SDS011;10200;49.232;9.222;2023-08-24T06:15:58;4.03;;;2.08;;
20080;SDS011;10200;49.232;9.222;2023-08-24T06:18:24;5.50;;;2.00;;
20080;SDS011;10200;49.232;9.222;2023-08-24T06:20:49;3.63;;;2.20;;
20080;SDS011;10200;49.232;9.222;2023-08-24T06:23:18;4.00;;;2.47;;
20080;SDS011;10200;49.232;9.222;2023-08-24T06:25:44;2.92;;;1.92;;
20080;SDS011;10200;49.232;9.222;2023-08-24T06:28:10;2.08;;;1.75;;
20080;SDS011;10200;49.232;9.222;2023-08-24T06:30:40;1.70;;;1.60;;
20080;SDS011;10200;49.232;9.222;2023-08-24T06:33:06;3.15;;;2.03;;
20080;SDS011;10200;49.232;9.222;2023-08-24T06:35:35;2.33;;;2.00;;
20080;SDS011;10200;49.232;9.222;2023-08-24T06:38:02;2.60;;;1.90;;
20080;SDS011;10200;49.232;9.222;2023-08-24T06:40:28;2.50;;;1.70;;
20080;SDS011;10200;49.232;9.222;2023-08-24T06:42:54;4.63;;;2.03;;
20080;SDS011;10200;49.232;9.222;2023-08-24T06:45:20;2.28;;;1.95;;
20080;SDS011;10200;49.232;9.222;2023-08-24T06:47:46;5.72;;;2.50;;
20080;SDS011;10200;49.232;9.222;2023-08-24T06:50:12;7.65;;;2.05;;
20080;SDS011;10200;49.232;9.222;2023-08-24T06:52:37;13.15;;;2.65;;
20080;SDS011;10200;49.232;9.222;2023-08-24T06:55:03;17.60;;;4.10;;
20080;SDS011;10200;49.232;9.222;2023-08-24T06:57:30;14.23;;;3.45;;
20080;SDS011;10200;49.232;9.222;2023-08-24T06:59:55;7.28;;;2.83;;
20080;SDS011;10200;49.232;9.222;2023-08-24T07:02:21;11.55;;;2.85;;
20080;SDS011;10200;49.232;9.222;2023-08-24T07:04:47;7.78;;;2.22;;
20080;SDS011;10200;49.232;9.222;2023-08-24T07:07:13;19.13;;;4.35;;
20080;SDS011;10200;49.232;9.222;2023-08-24T07:09:39;26.10;;;4.50;;
20080;SDS011;10200;49.232;9.222;2023-08-24T07:12:04;7.30;;;2.08;;
20080;SDS011;10200;49.232;9.222;2023-08-24T07:14:35;7.22;;;2.40;;
20080;SDS011;10200;49.232;9.222;2023-08-24T07:17:01;6.13;;;1.90;;
20080;SDS011;10200;49.232;9.222;2023-08-24T07:19:26;11.88;;;2.47;;
20080;SDS011;10200;49.232;9.222;2023-08-24T07:21:52;7.00;;;2.33;;
20080;SDS011;10200;49.232;9.222;2023-08-24T07:24:18;4.43;;;2.25;;
20080;SDS011;10200;49.232;9.222;2023-08-24T07:26:51;27.50;;;5.20;;
20080;SDS011;10200;49.232;9.222;2023-08-24T07:29:17;17.30;;;4.97;;
20080;SDS011;10200;49.232;9.222;2023-08-24T07:31:43;10.43;;;2.80;;
20080;SDS011;10200;49.232;9.222;2023-08-24T07:34:09;3.00;;;2.05;;
20080;SDS011;10200;49.232;9.222;2023-08-24T07:36:35;3.38;;;1.90;;
20080;SDS011;10200;49.232;9.222;2023-08-24T07:39:00;7.65;;;2.42;;
20080;SDS011;10200;49.232;9.222;2023-08-24T07:41:26;5.93;;;2.28;;
20080;SDS011;10200;49.232;9.222;2023-08-24T07:43:52;9.63;;;2.38;;
20080;SDS011;10200;49.232;9.222;2023-08-24T07:46:17;6.28;;;2.67;;
20080;SDS011;10200;49.232;9.222;2023-08-24T07:48:43;4.25;;;2.00;;
20080;SDS011;10200;49.232;9.222;2023-08-24T07:51:08;2.83;;;1.75;;
20080;SDS011;10200;49.232;9.222;2023-08-24T07:53:34;2.45;;;1.77;;
20080;SDS011;10200;49.232;9.222;2023-08-24T07:56:00;3.15;;;2.17;;
20080;SDS011;10200;49.232;9.222;2023-08-24T07:58:27;3.40;;;2.05;;
20080;SDS011;10200;49.232;9.222;2023-08-24T08:00:53;2.00;;;1.55;;
20080;SDS011;10200;49.232;9.222;2023-08-24T08:03:19;10.02;;;2.10;;
20080;SDS011;10200;49.232;9.222;2023-08-24T08:05:45;5.93;;;1.88;;
20080;SDS011;10200;49.232;9.222;2023-08-24T08:08:12;4.15;;;2.00;;
20080;SDS011;10200;49.232;9.222;2023-08-24T08:10:38;2.63;;;1.75;;
20080;SDS011;10200;49.232;9.222;2023-08-24T08:13:04;4.85;;;1.92;;
20080;SDS011;10200;49.232;9.222;2023-08-24T08:15:30;4.07;;;1.50;;
20080;SDS011;10200;49.232;9.222;2023-08-24T08:17:55;5.80;;;1.75;;
20080;SDS011;10200;49.232;9.222;2023-08-24T08:20:21;3.35;;;2.00;;
20080;SDS011;10200;49.232;9.222;2023-08-24T08:22:47;5.35;;;1.83;;
20080;SDS011;10200;49.232;9.222;2023-08-24T08:25:12;4.28;;;1.98;;
20080;SDS011;10200;49.232;9.222;2023-08-24T08:27:38;5.28;;;2.00;;
20080;SDS011;10200;49.232;9.222;2023-08-24T08:30:04;5.07;;;1.85;;
20080;SDS011;10200;49.232;9.222;2023-08-24T08:32:30;7.13;;;2.33;;
20080;SDS011;10200;49.232;9.222;2023-08-24T08:34:56;3.03;;;1.92;;
20080;SDS011;10200;49.232;9.222;2023-08-24T08:37:26;5.10;;;1.95;;
20080;SDS011;10200;49.232;9.222;2023-08-24T08:39:51;4.10;;;2.03;;
20080;SDS011;10200;49.232;9.222;2023-08-24T08:42:17;3.72;;;2.17;;
20080;SDS011;10200;49.232;9.222;2023-08-24T08:44:44;3.75;;;2.15;;
20080;SDS011;10200;49.232;9.222;2023-08-24T08:47:11;3.55;;;1.92;;
20080;SDS011;10200;49.232;9.222;2023-08-24T08:49:38;4.90;;;2.00;;
20080;SDS011;10200;49.232;9.222;2023-08-24T08:52:05;8.73;;;2.40;;
20080;SDS011;10200;49.232;9.222;2023-08-24T08:54:31;2.72;;;1.63;;
20080;SDS011;10200;49.232;9.222;2023-08-24T08:56:58;17.63;;;3.83;;
20080;SDS011;10200;49.232;9.222;2023-08-24T08:59:24;9.07;;;2.45;;
20080;SDS011;10200;49.232;9.222;2023-08-24T09:01:55;10.25;;;2.22;;
20080;SDS011;10200;49.232;9.222;2023-08-24T09:04:26;4.22;;;1.95;;
20080;SDS011;10200;49.232;9.222;2023-08-24T09:06:54;5.68;;;2.30;;
20080;SDS011;10200;49.232;9.222;2023-08-24T09:09:21;5.63;;;1.90;;
20080;SDS011;10200;49.232;9.222;2023-08-24T09:11:47;7.05;;;2.13;;
20080;SDS011;10200;49.232;9.222;2023-08-24T09:14:14;4.68;;;1.80;;
20080;SDS011;10200;49.232;9.222;2023-08-24T09:16:41;3.63;;;2.45;;
20080;SDS011;10200;49.232;9.222;2023-08-24T09:19:06;5.85;;;2.03;;
20080;SDS011;10200;49.232;9.222;2023-08-24T09:21:38;3.15;;;1.85;;
20080;SDS011;10200;49.232;9.222;2023-08-24T09:24:06;3.08;;;2.00;;
20080;SDS011;10200;49.232;9.222;2023-08-24T09:26:33;4.60;;;2.20;;
20080;SDS011;10200;49.232;9.222;2023-08-24T09:29:00;4.10;;;1.88;;
20080;SDS011;10200;49.232;9.222;2023-08-24T09:31:37;3.30;;;2.20;;
20080;SDS011;10200;49.232;9.222;2023-08-24T09:34:03;10.63;;;2.20;;
20080;SDS011;10200;49.232;9.222;2023-08-24T09:36:33;2.67;;;2.13;;
20080;SDS011;10200;49.232;9.222;2023-08-24T09:38:59;4.80;;;2.28;;
20080;SDS011;10200;49.232;9.222;2023-08-24T09:41:38;3.47;;;2.17;;
20080;SDS011;10200;49.232;9.222;2023-08-24T09:44:09;4.47;;;1.88;;
20080;SDS011;10200;49.232;9.222;2023-08-24T09:46:35;6.63;;;2.78;;
20080;SDS011;10200;49.232;9.222;2023-08-24T09:49:04;4.35;;;1.90;;
20080;SDS011;10200;49.232;9.222;2023-08-24T09:51:31;2.65;;;2.38;;
20080;SDS011;10200;49.232;9.222;2023-08-24T09:53:58;3.35;;;2.05;;
20080;SDS011;10200;49.232;9.222;2023-08-24T09:56:31;7.40;;;2.33;;
20080;SDS011;10200;49.232;9.222;2023-08-24T09:58:59;5.22;;;2.10;;
20080;SDS011;10200;49.232;9.222;2023-08-24T10:01:29;4.15;;;2.20;;
20080;SDS011;10200;49.232;9.222;2023-08-24T10:03:55;4.03;;;1.88;;
20080;SDS011;10200;49.232;9.222;2023-08-24T10:06:24;12.23;;;3.13;;
20080;SDS011;10200;49.232;9.222;2023-08-24T10:08:54;10.43;;;2.38;;
20080;SDS011;10200;49.232;9.222;2023-08-24T10:11:26;12.05;;;2.22;;
20080;SDS011;10200;49.232;9.222;2023-08-24T10:13:58;4.60;;;2.40;;
20080;SDS011;10200;49.232;9.222;2023-08-24T10:16:32;7.00;;;2.33;;
20080;SDS011;10200;49.232;9.222;2023-08-24T10:19:00;4.90;;;2.45;;
20080;SDS011;10200;49.232;9.222;2023-08-24T10:21:28;3.83;;;2.55;;
20080;SDS011;10200;49.232;9.222;2023-08-24T10:23:55;4.80;;;2.60;;
20080;SDS011;10200;49.232;9.222;2023-08-24T10:26:22;2.63;;;1.90;;
20080;SDS011;10200;49.232;9.222;2023-08-24T10:28:52;5.65;;;2.50;;
20080;SDS011;10200;49.232;9.222;2023-08-24T10:31:18;9.05;;;3.08;;
20080;SDS011;10200;49.232;9.222;2023-08-24T10:33:45;5.82;;;2.50;;
20080;SDS011;10200;49.232;9.222;2023-08-24T10:36:15;4.75;;;2.63;;
20080;SDS011;10200;49.232;9.222;2023-08-24T10:38:41;4.82;;;2.25;;
20080;SDS011;10200;49.232;9.222;2023-08-24T10:41:07;4.93;;;2.42;;
20080;SDS011;10200;49.232;9.222;2023-08-24T10:43:37;3.33;;;2.88;;
20080;SDS011;10200;49.232;9.222;2023-08-24T10:46:03;7.10;;;3.00;;
20080;SDS011;10200;49.232;9.222;2023-08-24T10:51:24;7.10;;;2.97;;
20080;SDS011;10200;49.232;9.222;2023-08-24T10:53:56;6.10;;;3.03;;
20080;SDS011;10200;49.232;9.222;2023-08-24T10:56:37;3.88;;;2.65;;
20080;SDS011;10200;49.232;9.222;2023-08-24T10:59:17;6.63;;;2.78;;
20080;SDS011;10200;49.232;9.222;2023-08-24T11:04:19;6.22;;;2.97;;
20080;SDS011;10200;49.232;9.222;2023-08-24T11:06:57;4.53;;;3.25;;
20080;SDS011;10200;49.232;9.222;2023-08-24T11:09:24;9.32;;;3.00;;
20080;SDS011;10200;49.232;9.222;2023-08-24T11:12:00;4.55;;;2.80;;
20080;SDS011;10200;49.232;9.222;2023-08-24T11:14:28;6.22;;;3.00;;
20080;SDS011;10200;49.232;9.222;2023-08-24T11:17:16;3.85;;;2.70;;
20080;SDS011;10200;49.232;9.222;2023-08-24T11:19:47;4.88;;;2.85;;
20080;SDS011;10200;49.232;9.222;2023-08-24T11:22:14;4.65;;;2.70;;
20080;SDS011;10200;49.232;9.222;2023-08-24T11:24:46;6.20;;;2.58;;
20080;SDS011;10200;49.232;9.222;2023-08-24T11:27:12;4.65;;;2.40;;
20080;SDS011;10200;49.232;9.222;2023-08-24T11:29:37;7.65;;;3.00;;
20080;SDS011;10200;49.232;9.222;2023-08-24T11:32:03;6.72;;;3.03;;
20080;SDS011;10200;49.232;9.222;2023-08-24T11:34:29;16.20;;;3.40;;
20080;SDS011;10200;49.232;9.222;2023-08-24T11:36:55;4.05;;;2.90;;
20080;SDS011;10200;49.232;9.222;2023-08-24T11:39:22;5.82;;;2.85;;
20080;SDS011;10200;49.232;9.222;2023-08-24T11:42:05;6.72;;;2.55;;
20080;SDS011;10200;49.232;9.222;2023-08-24T11:44:44;4.97;;;2.70;;
20080;SDS011;10200;49.232;9.222;2023-08-24T11:47:14;5.03;;;2.72;;
20080;SDS011;10200;49.232;9.222;2023-08-24T11:49:40;4.47;;;2.58;;
20080;SDS011;10200;49.232;9.222;2023-08-24T11:52:06;5.10;;;2.80;;
20080;SDS011;10200;49.232;9.222;2023-08-24T11:54:33;5.40;;;2.78;;
20080;SDS011;10200;49.232;9.222;2023-08-24T11:56:58;3.25;;;2.63;;
20080;SDS011;10200;49.232;9.222;2023-08-24T11:59:24;4.35;;;3.08;;
20080;SDS011;10200;49.232;9.222;2023-08-24T12:01:50;5.25;;;3.08;;
20080;SDS011;10200;49.232;9.222;2023-08-24T12:04:17;6.70;;;2.92;;
20080;SDS011;10200;49.232;9.222;2023-08-24T12:06:43;4.07;;;2.83;;
20080;SDS011;10200;49.232;9.222;2023-08-24T12:09:09;7.03;;;2.95;;
20080;SDS011;10200;49.232;9.222;2023-08-24T12:11:35;5.65;;;3.15;;
20080;SDS011;10200;49.232;9.222;2023-08-24T12:14:02;4.35;;;3.05;;
20080;SDS011;10200;49.232;9.222;2023-08-24T12:16:30;5.80;;;3.25;;
20080;SDS011;10200;49.232;9.222;2023-08-24T12:18:57;3.85;;;2.80;;
20080;SDS011;10200;49.232;9.222;2023-08-24T12:21:30;5.72;;;3.38;;
20080;SDS011;10200;49.232;9.222;2023-08-24T12:24:00;5.13;;;3.00;;
20080;SDS011;10200;49.232;9.222;2023-08-24T12:26:28;5.10;;;3.10;;
20080;SDS011;10200;49.232;9.222;2023-08-24T12:29:27;6.40;;;2.85;;
20080;SDS011;10200;49.232;9.222;2023-08-24T12:31:46;4.47;;;2.90;;
20080;SDS011;10200;49.232;9.222;2023-08-24T12:34:13;4.03;;;3.13;;
20080;SDS011;10200;49.232;9.222;2023-08-24T12:36:41;4.30;;;3.33;;
20080;SDS011;10200;49.232;9.222;2023-08-24T12:39:10;8.00;;;2.97;;
20080;SDS011;10200;49.232;9.222;2023-08-24T12:41:37;9.75;;;3.67;;
20080;SDS011;10200;49.232;9.222;2023-08-24T12:44:03;6.00;;;3.17;;
20080;SDS011;10200;49.232;9.222;2023-08-24T12:46:33;3.85;;;3.45;;
20080;SDS011;10200;49.232;9.222;2023-08-24T12:49:02;4.70;;;2.90;;
20080;SDS011;10200;49.232;9.222;2023-08-24T12:51:28;4.50;;;2.67;;
20080;SDS011;10200;49.232;9.222;2023-08-24T12:53:53;5.13;;;3.13;;
20080;SDS011;10200;49.232;9.222;2023-08-24T12:56:19;5.97;;;3.78;;
20080;SDS011;10200;49.232;9.222;2023-08-24T12:58:44;4.47;;;2.90;;
20080;SDS011;10200;49.232;9.222;2023-08-24T13:01:13;4.32;;;3.08;;
20080;SDS011;10200;49.232;9.222;2023-08-24T13:03:39;3.53;;;3.20;;
20080;SDS011;10200;49.232;9.222;2023-08-24T13:06:07;5.65;;;3.60;;
20080;SDS011;10200;49.232;9.222;2023-08-24T13:08:33;7.63;;;3.65;;
20080;SDS011;10200;49.232;9.222;2023-08-24T13:10:59;3.38;;;2.83;;
20080;SDS011;10200;49.232;9.222;2023-08-24T13:13:24;4.57;;;3.17;;
20080;SDS011;10200;49.232;9.222;2023-08-24T13:15:50;3.65;;;3.33;;
20080;SDS011;10200;49.232;9.222;2023-08-24T13:18:16;4.53;;;3.33;;
20080;SDS011;10200;49.232;9.222;2023-08-24T13:20:42;3.15;;;2.85;;
20080;SDS011;10200;49.232;9.222;2023-08-24T13:23:08;3.47;;;3.15;;
20080;SDS011;10200;49.232;9.222;2023-08-24T13:25:33;8.25;;;2.88;;
20080;SDS011;10200;49.232;9.222;2023-08-24T13:27:59;6.82;;;3.33;;
20080;SDS011;10200;49.232;9.222;2023-08-24T13:30:25;4.43;;;2.97;;
20080;SDS011;10200;49.232;9.222;2023-08-24T13:32:50;6.68;;;2.97;;
20080;SDS011;10200;49.232;9.222;2023-08-24T13:35:16;6.68;;;3.25;;
20080;SDS011;10200;49.232;9.222;2023-08-24T13:37:41;4.57;;;3.10;;
20080;SDS011;10200;49.232;9.222;2023-08-24T13:40:07;6.53;;;3.38;;
20080;SDS011;10200;49.232;9.222;2023-08-24T13:42:33;3.58;;;3.17;;
20080;SDS011;10200;49.232;9.222;2023-08-24T13:44:59;4.40;;;3.78;;
20080;SDS011;10200;49.232;9.222;2023-08-24T13:47:25;5.55;;;3.40;;
20080;SDS011;10200;49.232;9.222;2023-08-24T13:49:50;7.05;;;3.60;;
20080;SDS011;10200;49.232;9.222;2023-08-24T13:52:16;4.95;;;3.08;;
20080;SDS011;10200;49.232;9.222;2023-08-24T13:54:44;5.95;;;3.40;;
20080;SDS011;10200;49.232;9.222;2023-08-24T13:57:10;6.00;;;3.35;;
20080;SDS011;10200;49.232;9.222;2023-08-24T13:59:35;4.20;;;3.38;;
20080;SDS011;10200;49.232;9.222;2023-08-24T14:02:01;5.15;;;2.95;;
20080;SDS011;10200;49.232;9.222;2023-08-24T14:04:26;3.67;;;3.38;;
20080;SDS011;10200;49.232;9.222;2023-08-24T14:06:52;8.00;;;3.45;;
20080;SDS011;10200;49.232;9.222;2023-08-24T14:09:18;3.45;;;3.03;;
20080;SDS011;10200;49.232;9.222;2023-08-24T14:11:43;4.75;;;3.45;;
20080;SDS011;10200;49.232;9.222;2023-08-24T14:14:09;4.30;;;3.22;;
20080;SDS011;10200;49.232;9.222;2023-08-24T14:16:35;3.63;;;3.20;;
20080;SDS011;10200;49.232;9.222;2023-08-24T14:19:01;5.82;;;3.55;;
20080;SDS011;10200;49.232;9.222;2023-08-24T14:21:26;3.53;;;2.95;;
20080;SDS011;10200;49.232;9.222;2023-08-24T14:23:52;4.20;;;3.20;;
20080;SDS011;10200;49.232;9.222;2023-08-24T14:26:17;3.33;;;3.03;;
20080;SDS011;10200;49.232;9.222;2023-08-24T14:29:01;6.05;;;3.17;;
20080;SDS011;10200;49.232;9.222;2023-08-24T14:31:28;4.50;;;3.28;;
20080;SDS011;10200;49.232;9.222;2023-08-24T14:33:54;3.63;;;3.17;;
20080;SDS011;10200;49.232;9.222;2023-08-24T14:36:20;5.30;;;3.03;;
20080;SDS011;10200;49.232;9.222;2023-08-24T14:38:47;3.65;;;2.75;;
20080;SDS011;10200;49.232;9.222;2023-08-24T14:41:14;3.58;;;3.28;;
20080;SDS011;10200;49.232;9.222;2023-08-24T14:43:40;5.68;;;3.20;;
20080;SDS011;10200;49.232;9.222;2023-08-24T14:46:06;4.22;;;3.40;;
20080;SDS011;10200;49.232;9.222;2023-08-24T14:48:33;3.35;;;3.05;;
20080;SDS011;10200;49.232;9.222;2023-08-24T14:50:59;3.28;;;2.97;;
20080;SDS011;10200;49.232;9.222;2023-08-24T14:53:25;5.43;;;3.67;;
20080;SDS011;10200;49.232;9.222;2023-08-24T14:55:52;4.93;;;3.45;;
20080;SDS011;10200;49.232;9.222;2023-08-24T14:58:19;6.80;;;3.67;;